sensor_id;sensor_type;location;lat;lon;timestamp;pressure;altitude;pressure_sealevel;temperature;humidity
53116;BME280;39010;48.088;7.954;2022-07-06T00:00:05;99295.72;;;16.00;71.07
53116;BME280;39010;48.088;7.954;2022-07-06T00:02:32;99294.44;;;15.96;71.46
53116;BME280;39010;48.088;7.954;2022-07-06T00:04:59;99304.84;;;15.93;71.48
53116;BME280;39010;48.088;7.954;2022-07-06T00:07:26;99294.03;;;15.93;71.82
53116;BME280;39010;48.088;7.954;2022-07-06T00:09:52;99289.38;;;15.86;71.85
53116;BME280;39010;48.088;7.954;2022-07-06T00:12:19;99288.97;;;15.83;72.17
53116;BME280;39010;48.088;7.954;2022-07-06T00:14:45;99286.84;;;15.78;72.35
53116;BME280;39010;48.088;7.954;2022-07-06T00:17:11;99283.91;;;15.73;72.66
53116;BME280;39010;48.088;7.954;2022-07-06T00:19:38;99288.69;;;15.71;73.69
53116;BME280;39010;48.088;7.954;2022-07-06T00:22:04;99288.31;;;15.81;73.09
53116;BME280;39010;48.088;7.954;2022-07-06T00:24:31;99285.78;;;15.72;72.76
53116;BME280;39010;48.088;7.954;2022-07-06T00:26:57;99290.50;;;15.64;72.91
53116;BME280;39010;48.088;7.954;2022-07-06T00:29:24;99294.25;;;15.63;72.80
53116;BME280;39010;48.088;7.954;2022-07-06T00:31:50;99287.97;;;15.55;72.96
53116;BME280;39010;48.088;7.954;2022-07-06T00:34:17;99286.50;;;15.53;73.09
53116;BME280;39010;48.088;7.954;2022-07-06T00:36:44;99283.72;;;15.46;72.98
53116;BME280;39010;48.088;7.954;2022-07-06T00:39:10;99290.44;;;15.50;73.37
53116;BME280;39010;48.088;7.954;2022-07-06T00:41:36;99282.69;;;15.47;73.53
53116;BME280;39010;48.088;7.954;2022-07-06T00:44:06;99285.81;;;15.44;73.57
53116;BME280;39010;48.088;7.954;2022-07-06T00:46:33;99276.81;;;15.37;73.80
53116;BME280;39010;48.088;7.954;2022-07-06T00:49:00;99283.22;;;15.29;74.16
53116;BME280;39010;48.088;7.954;2022-07-06T00:51:32;99281.09;;;15.24;74.45
53116;BME280;39010;48.088;7.954;2022-07-06T00:54:02;99282.75;;;15.25;74.05
53116;BME280;39010;48.088;7.954;2022-07-06T00:56:31;99281.06;;;15.17;74.65
53116;BME280;39010;48.088;7.954;2022-07-06T00:59:00;99283.13;;;15.15;74.70
53116;BME280;39010;48.088;7.954;2022-07-06T01:01:26;99288.72;;;15.14;74.82
53116;BME280;39010;48.088;7.954;2022-07-06T01:03:54;99286.38;;;15.11;74.72
53116;BME280;39010;48.088;7.954;2022-07-06T01:06:20;99280.19;;;15.17;74.23
53116;BME280;39010;48.088;7.954;2022-07-06T01:08:47;99286.13;;;15.06;74.68
53116;BME280;39010;48.088;7.954;2022-07-06T01:11:14;99279.31;;;15.10;74.68
53116;BME280;39010;48.088;7.954;2022-07-06T01:13:42;99290.53;;;15.07;74.19
53116;BME280;39010;48.088;7.954;2022-07-06T01:16:08;99281.34;;;15.01;74.61
53116;BME280;39010;48.088;7.954;2022-07-06T01:18:35;99283.81;;;15.02;74.47
53116;BME280;39010;48.088;7.954;2022-07-06T01:21:12;99283.78;;;14.96;74.62
53116;BME280;39010;48.088;7.954;2022-07-06T01:23:44;99276.84;;;14.86;74.97
53116;BME280;39010;48.088;7.954;2022-07-06T01:26:17;99273.25;;;14.79;75.32
53116;BME280;39010;48.088;7.954;2022-07-06T01:28:48;99268.03;;;14.78;75.76
53116;BME280;39010;48.088;7.954;2022-07-06T01:31:25;99267.78;;;14.72;75.62
53116;BME280;39010;48.088;7.954;2022-07-06T01:33:54;99266.13;;;14.71;75.57
53116;BME280;39010;48.088;7.954;2022-07-06T01:36:21;99259.78;;;14.64;76.11
53116;BME280;39010;48.088;7.954;2022-07-06T01:38:51;99264.34;;;14.64;76.33
53116;BME280;39010;48.088;7.954;2022-07-06T01:41:19;99259.31;;;14.61;76.47
53116;BME280;39010;48.088;7.954;2022-07-06T01:43:46;99259.44;;;14.52;76.29
53116;BME280;39010;48.088;7.954;2022-07-06T01:46:14;99263.00;;;14.53;76.42
53116;BME280;39010;48.088;7.954;2022-07-06T01:48:40;99262.16;;;14.52;76.61
53116;BME280;39010;48.088;7.954;2022-07-06T01:51:07;99264.84;;;14.52;76.32
53116;BME280;39010;48.088;7.954;2022-07-06T01:53:35;99267.13;;;14.49;76.58
53116;BME280;39010;48.088;7.954;2022-07-06T01:56:04;99267.25;;;14.40;76.75
53116;BME280;39010;48.088;7.954;2022-07-06T01:58:31;99266.59;;;14.38;77.21
53116;BME280;39010;48.088;7.954;2022-07-06T02:00:57;99264.06;;;14.37;77.16
53116;BME280;39010;48.088;7.954;2022-07-06T02:03:24;99267.78;;;14.36;76.83
53116;BME280;39010;48.088;7.954;2022-07-06T02:05:51;99264.84;;;14.31;77.35
53116;BME280;39010;48.088;7.954;2022-07-06T02:08:19;99263.63;;;14.33;77.62
53116;BME280;39010;48.088;7.954;2022-07-06T02:22:50;99275.72;;;14.01;78.67
53116;BME280;39010;48.088;7.954;2022-07-06T02:25:17;99274.22;;;13.98;78.63
53116;BME280;39010;48.088;7.954;2022-07-06T02:27:44;99279.44;;;13.99;79.00
53116;BME280;39010;48.088;7.954;2022-07-06T02:30:12;99282.81;;;14.02;79.03
53116;BME280;39010;48.088;7.954;2022-07-06T02:32:38;99285.69;;;14.00;79.00
53116;BME280;39010;48.088;7.954;2022-07-06T02:35:05;99278.53;;;13.92;79.03
53116;BME280;39010;48.088;7.954;2022-07-06T02:37:31;99285.41;;;13.95;78.54
53116;BME280;39010;48.088;7.954;2022-07-06T02:39:58;99287.81;;;13.90;78.67
53116;BME280;39010;48.088;7.954;2022-07-06T02:42:25;99292.78;;;13.86;79.17
53116;BME280;39010;48.088;7.954;2022-07-06T02:44:53;99289.22;;;13.85;79.66
53116;BME280;39010;48.088;7.954;2022-07-06T02:47:20;99292.03;;;13.77;79.81
53116;BME280;39010;48.088;7.954;2022-07-06T02:49:47;99294.66;;;13.70;79.50
53116;BME280;39010;48.088;7.954;2022-07-06T02:52:14;99292.75;;;13.71;79.92
53116;BME280;39010;48.088;7.954;2022-07-06T02:54:40;99297.34;;;13.70;79.70
53116;BME280;39010;48.088;7.954;2022-07-06T02:57:07;99296.97;;;13.74;79.65
53116;BME280;39010;48.088;7.954;2022-07-06T02:59:33;99292.75;;;13.71;79.80
53116;BME280;39010;48.088;7.954;2022-07-06T03:02:00;99296.13;;;13.73;80.53
53116;BME280;39010;48.088;7.954;2022-07-06T03:04:26;99298.91;;;13.65;80.39
53116;BME280;39010;48.088;7.954;2022-07-06T03:06:53;99289.41;;;13.69;79.93
53116;BME280;39010;48.088;7.954;2022-07-06T03:09:20;99303.00;;;13.61;80.37
53116;BME280;39010;48.088;7.954;2022-07-06T03:11:47;99292.66;;;13.49;80.10
53116;BME280;39010;48.088;7.954;2022-07-06T03:14:14;99308.69;;;13.51;79.68
53116;BME280;39010;48.088;7.954;2022-07-06T03:16:43;99302.06;;;13.53;79.62
53116;BME280;39010;48.088;7.954;2022-07-06T03:19:17;99313.63;;;13.39;79.89
53116;BME280;39010;48.088;7.954;2022-07-06T03:21:45;99308.56;;;13.44;79.66
53116;BME280;39010;48.088;7.954;2022-07-06T03:24:11;99304.09;;;13.51;79.56
53116;BME280;39010;48.088;7.954;2022-07-06T03:26:37;99309.63;;;13.35;80.18
53116;BME280;39010;48.088;7.954;2022-07-06T03:29:04;99305.75;;;13.37;80.44
53116;BME280;39010;48.088;7.954;2022-07-06T03:31:30;99305.09;;;13.35;80.13
53116;BME280;39010;48.088;7.954;2022-07-06T03:33:57;99306.56;;;13.38;79.91
53116;BME280;39010;48.088;7.954;2022-07-06T03:36:24;99314.38;;;13.33;80.22
53116;BME280;39010;48.088;7.954;2022-07-06T03:38:51;99305.63;;;13.31;80.81
53116;BME280;39010;48.088;7.954;2022-07-06T03:41:18;99311.88;;;13.31;80.27
53116;BME280;39010;48.088;7.954;2022-07-06T03:43:45;99305.63;;;13.31;80.67
53116;BME280;39010;48.088;7.954;2022-07-06T03:46:12;99299.50;;;13.37;80.38
53116;BME280;39010;48.088;7.954;2022-07-06T03:48:39;99298.41;;;13.31;81.53
53116;BME280;39010;48.088;7.954;2022-07-06T03:51:06;99308.31;;;13.31;81.23
53116;BME280;39010;48.088;7.954;2022-07-06T03:53:33;99305.34;;;13.25;80.41
53116;BME280;39010;48.088;7.954;2022-07-06T03:56:00;99305.81;;;13.29;80.94
53116;BME280;39010;48.088;7.954;2022-07-06T03:58:46;99302.03;;;13.23;80.99
53116;BME280;39010;48.088;7.954;2022-07-06T04:01:12;99302.94;;;13.31;80.47
53116;BME280;39010;48.088;7.954;2022-07-06T04:03:39;99306.19;;;13.26;80.36
53116;BME280;39010;48.088;7.954;2022-07-06T04:06:06;99308.53;;;13.29;81.37
53116;BME280;39010;48.088;7.954;2022-07-06T04:08:33;99314.56;;;13.31;80.96
53116;BME280;39010;48.088;7.954;2022-07-06T04:11:01;99319.31;;;13.29;80.37
53116;BME280;39010;48.088;7.954;2022-07-06T04:13:28;99315.41;;;13.32;79.89
53116;BME280;39010;48.088;7.954;2022-07-06T04:15:55;99317.06;;;13.33;79.11
53116;BME280;39010;48.088;7.954;2022-07-06T04:18:21;99320.13;;;13.30;80.15
53116;BME280;39010;48.088;7.954;2022-07-06T04:20:52;99317.72;;;13.35;80.81
53116;BME280;39010;48.088;7.954;2022-07-06T04:23:19;99316.63;;;13.29;79.65
53116;BME280;39010;48.088;7.954;2022-07-06T04:25:46;99320.41;;;13.35;80.37
53116;BME280;39010;48.088;7.954;2022-07-06T04:28:13;99319.97;;;13.31;80.90
53116;BME280;39010;48.088;7.954;2022-07-06T04:30:40;99318.38;;;13.37;80.66
53116;BME280;39010;48.088;7.954;2022-07-06T04:33:10;99320.25;;;13.36;80.37
53116;BME280;39010;48.088;7.954;2022-07-06T04:35:38;99314.97;;;13.43;80.59
53116;BME280;39010;48.088;7.954;2022-07-06T04:38:05;99314.44;;;13.48;80.17
53116;BME280;39010;48.088;7.954;2022-07-06T04:40:31;99309.13;;;13.54;80.45
53116;BME280;39010;48.088;7.954;2022-07-06T04:43:02;99320.13;;;13.53;79.50
53116;BME280;39010;48.088;7.954;2022-07-06T04:45:29;99322.81;;;13.53;78.43
53116;BME280;39010;48.088;7.954;2022-07-06T04:47:56;99319.56;;;13.58;78.39
53116;BME280;39010;48.088;7.954;2022-07-06T04:50:23;99320.03;;;13.61;78.93
53116;BME280;39010;48.088;7.954;2022-07-06T04:52:51;99322.81;;;13.68;77.88
53116;BME280;39010;48.088;7.954;2022-07-06T04:55:18;99322.09;;;13.89;77.27
53116;BME280;39010;48.088;7.954;2022-07-06T04:57:46;99321.47;;;14.24;80.07
53116;BME280;39010;48.088;7.954;2022-07-06T05:00:14;99320.94;;;14.13;76.33
53116;BME280;39010;48.088;7.954;2022-07-06T05:02:41;99323.06;;;14.18;76.45
53116;BME280;39010;48.088;7.954;2022-07-06T05:05:09;99329.66;;;14.31;76.58
53116;BME280;39010;48.088;7.954;2022-07-06T05:07:36;99324.94;;;14.18;76.12
53116;BME280;39010;48.088;7.954;2022-07-06T05:10:10;99315.59;;;14.35;75.87
53116;BME280;39010;48.088;7.954;2022-07-06T05:12:40;99318.88;;;14.52;76.08
53116;BME280;39010;48.088;7.954;2022-07-06T05:15:07;99323.22;;;14.68;75.50
53116;BME280;39010;48.088;7.954;2022-07-06T05:17:34;99322.53;;;14.81;74.53
53116;BME280;39010;48.088;7.954;2022-07-06T05:20:01;99329.34;;;14.77;72.99
53116;BME280;39010;48.088;7.954;2022-07-06T05:22:31;99323.78;;;14.79;73.85
53116;BME280;39010;48.088;7.954;2022-07-06T05:24:58;99321.38;;;14.91;73.83
53116;BME280;39010;48.088;7.954;2022-07-06T05:27:24;99313.13;;;14.99;73.32
53116;BME280;39010;48.088;7.954;2022-07-06T05:29:52;99317.09;;;14.96;72.71
53116;BME280;39010;48.088;7.954;2022-07-06T05:32:18;99328.38;;;15.07;72.45
53116;BME280;39010;48.088;7.954;2022-07-06T05:34:45;99329.78;;;15.02;71.51
53116;BME280;39010;48.088;7.954;2022-07-06T05:37:12;99330.22;;;15.28;72.39
53116;BME280;39010;48.088;7.954;2022-07-06T05:39:39;99331.41;;;15.47;72.66
53116;BME280;39010;48.088;7.954;2022-07-06T05:42:08;99337.06;;;15.52;72.32
53116;BME280;39010;48.088;7.954;2022-07-06T05:44:35;99335.88;;;15.61;71.62
53116;BME280;39010;48.088;7.954;2022-07-06T05:47:02;99337.03;;;16.09;69.99
53116;BME280;39010;48.088;7.954;2022-07-06T05:49:47;99334.53;;;16.14;70.12
53116;BME280;39010;48.088;7.954;2022-07-06T05:52:33;99326.63;;;15.78;72.21
53116;BME280;39010;48.088;7.954;2022-07-06T05:55:00;99332.25;;;16.18;72.11
53116;BME280;39010;48.088;7.954;2022-07-06T05:57:27;99340.13;;;16.55;69.18
53116;BME280;39010;48.088;7.954;2022-07-06T05:59:54;99337.84;;;16.78;67.08
53116;BME280;39010;48.088;7.954;2022-07-06T06:02:20;99336.41;;;16.76;68.60
53116;BME280;39010;48.088;7.954;2022-07-06T06:04:47;99328.97;;;17.05;65.48
53116;BME280;39010;48.088;7.954;2022-07-06T06:07:14;99334.88;;;16.46;68.65
53116;BME280;39010;48.088;7.954;2022-07-06T06:09:41;99333.44;;;16.51;68.08
53116;BME280;39010;48.088;7.954;2022-07-06T06:12:07;99337.25;;;16.83;68.87
53116;BME280;39010;48.088;7.954;2022-07-06T06:14:35;99332.22;;;16.87;66.79
53116;BME280;39010;48.088;7.954;2022-07-06T06:17:01;99331.47;;;17.06;64.53
53116;BME280;39010;48.088;7.954;2022-07-06T06:19:28;99334.53;;;16.83;66.48
53116;BME280;39010;48.088;7.954;2022-07-06T06:21:55;99326.25;;;17.18;65.13
53116;BME280;39010;48.088;7.954;2022-07-06T06:24:21;99336.47;;;17.36;65.26
53116;BME280;39010;48.088;7.954;2022-07-06T06:26:50;99337.09;;;17.38;67.25
53116;BME280;39010;48.088;7.954;2022-07-06T06:29:16;99338.97;;;17.45;65.85
53116;BME280;39010;48.088;7.954;2022-07-06T06:31:43;99330.81;;;17.65;64.93
53116;BME280;39010;48.088;7.954;2022-07-06T06:34:10;99325.53;;;17.84;63.30
53116;BME280;39010;48.088;7.954;2022-07-06T06:36:36;99326.97;;;18.06;64.04
53116;BME280;39010;48.088;7.954;2022-07-06T06:39:02;99331.31;;;18.21;63.39
53116;BME280;39010;48.088;7.954;2022-07-06T06:41:29;99330.69;;;18.25;63.55
53116;BME280;39010;48.088;7.954;2022-07-06T06:43:55;99328.75;;;18.33;61.75
53116;BME280;39010;48.088;7.954;2022-07-06T06:46:28;99329.28;;;18.55;62.57
53116;BME280;39010;48.088;7.954;2022-07-06T06:48:54;99323.88;;;18.80;60.40
53116;BME280;39010;48.088;7.954;2022-07-06T06:51:20;99320.13;;;19.13;60.43
53116;BME280;39010;48.088;7.954;2022-07-06T06:53:47;99323.50;;;19.09;58.56
53116;BME280;39010;48.088;7.954;2022-07-06T06:56:14;99323.94;;;19.31;56.89
53116;BME280;39010;48.088;7.954;2022-07-06T06:58:40;99310.47;;;19.43;58.07
53116;BME280;39010;48.088;7.954;2022-07-06T07:01:26;99323.88;;;19.82;57.84
53116;BME280;39010;48.088;7.954;2022-07-06T07:03:54;99313.75;;;19.70;56.92
53116;BME280;39010;48.088;7.954;2022-07-06T07:06:21;99316.22;;;19.97;55.96
53116;BME280;39010;48.088;7.954;2022-07-06T07:08:48;99323.78;;;20.14;55.05
53116;BME280;39010;48.088;7.954;2022-07-06T07:11:14;99326.84;;;20.36;54.96
53116;BME280;39010;48.088;7.954;2022-07-06T07:13:41;99320.88;;;20.27;55.72
53116;BME280;39010;48.088;7.954;2022-07-06T07:16:07;99326.72;;;20.12;53.94
53116;BME280;39010;48.088;7.954;2022-07-06T07:18:34;99331.34;;;19.93;54.94
53116;BME280;39010;48.088;7.954;2022-07-06T07:21:01;99327.41;;;19.89;54.91
53116;BME280;39010;48.088;7.954;2022-07-06T07:23:27;99320.50;;;20.05;54.82
53116;BME280;39010;48.088;7.954;2022-07-06T07:25:54;99324.22;;;20.29;53.16
53116;BME280;39010;48.088;7.954;2022-07-06T07:28:20;99324.75;;;20.20;53.37
53116;BME280;39010;48.088;7.954;2022-07-06T07:30:47;99324.13;;;19.99;53.63
53116;BME280;39010;48.088;7.954;2022-07-06T07:33:14;99324.38;;;19.97;53.87
53116;BME280;39010;48.088;7.954;2022-07-06T07:35:40;99325.00;;;19.99;54.34
53116;BME280;39010;48.088;7.954;2022-07-06T07:38:07;99323.03;;;20.07;54.75
53116;BME280;39010;48.088;7.954;2022-07-06T07:40:33;99324.47;;;20.40;53.18
53116;BME280;39010;48.088;7.954;2022-07-06T07:43:01;99321.44;;;20.48;52.64
53116;BME280;39010;48.088;7.954;2022-07-06T07:45:28;99325.09;;;20.72;52.12
53116;BME280;39010;48.088;7.954;2022-07-06T07:47:55;99325.09;;;20.72;51.97
53116;BME280;39010;48.088;7.954;2022-07-06T07:50:22;99324.94;;;20.98;53.06
53116;BME280;39010;48.088;7.954;2022-07-06T07:52:49;99327.00;;;21.02;52.67
53116;BME280;39010;48.088;7.954;2022-07-06T07:55:16;99328.38;;;20.93;52.96
53116;BME280;39010;48.088;7.954;2022-07-06T07:58:02;99323.31;;;21.32;53.41
53116;BME280;39010;48.088;7.954;2022-07-06T08:00:29;99322.34;;;21.03;55.37
53116;BME280;39010;48.088;7.954;2022-07-06T08:02:55;99327.38;;;21.30;53.11
53116;BME280;39010;48.088;7.954;2022-07-06T08:05:22;99324.16;;;21.45;54.31
53116;BME280;39010;48.088;7.954;2022-07-06T08:07:48;99327.84;;;21.39;53.38
53116;BME280;39010;48.088;7.954;2022-07-06T08:10:15;99330.13;;;21.54;54.29
53116;BME280;39010;48.088;7.954;2022-07-06T08:12:41;99324.06;;;21.99;53.91
53116;BME280;39010;48.088;7.954;2022-07-06T08:15:11;99333.81;;;21.95;53.31
53116;BME280;39010;48.088;7.954;2022-07-06T08:17:38;99332.47;;;21.98;53.32
53116;BME280;39010;48.088;7.954;2022-07-06T08:20:06;99335.06;;;22.16;51.45
53116;BME280;39010;48.088;7.954;2022-07-06T08:22:35;99335.59;;;21.66;52.77
53116;BME280;39010;48.088;7.954;2022-07-06T08:25:03;99336.91;;;21.87;52.74
53116;BME280;39010;48.088;7.954;2022-07-06T08:27:29;99328.53;;;22.58;51.94
53116;BME280;39010;48.088;7.954;2022-07-06T08:29:56;99333.72;;;22.31;51.99
53116;BME280;39010;48.088;7.954;2022-07-06T08:32:23;99333.31;;;22.80;50.81
53116;BME280;39010;48.088;7.954;2022-07-06T08:35:10;99336.72;;;22.58;50.96
53116;BME280;39010;48.088;7.954;2022-07-06T08:37:36;99335.06;;;22.57;50.52
53116;BME280;39010;48.088;7.954;2022-07-06T08:40:04;99337.28;;;22.72;50.95
53116;BME280;39010;48.088;7.954;2022-07-06T08:42:33;99332.13;;;22.47;51.39
53116;BME280;39010;48.088;7.954;2022-07-06T08:45:02;99329.66;;;22.74;50.77
53116;BME280;39010;48.088;7.954;2022-07-06T08:47:30;99326.03;;;23.03;51.23
53116;BME280;39010;48.088;7.954;2022-07-06T08:49:57;99320.03;;;23.35;49.22
53116;BME280;39010;48.088;7.954;2022-07-06T08:52:24;99328.88;;;23.25;50.13
53116;BME280;39010;48.088;7.954;2022-07-06T08:54:51;99327.69;;;23.21;49.57
53116;BME280;39010;48.088;7.954;2022-07-06T08:57:18;99327.47;;;23.39;50.81
53116;BME280;39010;48.088;7.954;2022-07-06T08:59:44;99318.59;;;23.15;50.67
53116;BME280;39010;48.088;7.954;2022-07-06T09:02:11;99330.22;;;23.57;50.37
53116;BME280;39010;48.088;7.954;2022-07-06T09:04:42;99322.13;;;24.06;49.55
53116;BME280;39010;48.088;7.954;2022-07-06T09:07:09;99328.16;;;23.86;50.62
53116;BME280;39010;48.088;7.954;2022-07-06T09:09:36;99332.16;;;23.39;49.95
53116;BME280;39010;48.088;7.954;2022-07-06T09:12:03;99324.81;;;24.46;48.63
53116;BME280;39010;48.088;7.954;2022-07-06T09:14:31;99330.31;;;24.23;48.39
53116;BME280;39010;48.088;7.954;2022-07-06T09:17:03;99338.56;;;23.84;49.04
53116;BME280;39010;48.088;7.954;2022-07-06T09:19:34;99336.06;;;23.82;48.34
53116;BME280;39010;48.088;7.954;2022-07-06T09:22:01;99340.81;;;24.09;47.92
53116;BME280;39010;48.088;7.954;2022-07-06T09:24:28;99335.53;;;24.03;48.35
53116;BME280;39010;48.088;7.954;2022-07-06T09:26:56;99345.56;;;23.97;49.09
53116;BME280;39010;48.088;7.954;2022-07-06T09:29:31;99351.28;;;23.56;48.78
53116;BME280;39010;48.088;7.954;2022-07-06T09:32:02;99342.13;;;23.85;49.20
53116;BME280;39010;48.088;7.954;2022-07-06T09:34:47;99350.28;;;23.62;47.86
53116;BME280;39010;48.088;7.954;2022-07-06T09:37:14;99337.19;;;24.26;48.30
53116;BME280;39010;48.088;7.954;2022-07-06T09:39:42;99339.94;;;24.04;47.46
53116;BME280;39010;48.088;7.954;2022-07-06T09:42:09;99344.00;;;23.45;48.27
53116;BME280;39010;48.088;7.954;2022-07-06T09:44:38;99354.94;;;23.79;46.60
53116;BME280;39010;48.088;7.954;2022-07-06T09:47:10;99347.72;;;23.73;46.35
53116;BME280;39010;48.088;7.954;2022-07-06T09:49:38;99339.19;;;23.91;47.36
53116;BME280;39010;48.088;7.954;2022-07-06T09:52:07;99353.00;;;24.19;46.96
53116;BME280;39010;48.088;7.954;2022-07-06T09:54:35;99350.09;;;23.86;46.48
53116;BME280;39010;48.088;7.954;2022-07-06T09:57:03;99344.72;;;23.74;46.42
53116;BME280;39010;48.088;7.954;2022-07-06T09:59:35;99342.63;;;24.43;46.44
53116;BME280;39010;48.088;7.954;2022-07-06T10:02:06;99349.72;;;24.39;45.04
53116;BME280;39010;48.088;7.954;2022-07-06T10:04:34;99340.56;;;25.43;43.17
53116;BME280;39010;48.088;7.954;2022-07-06T10:07:01;99341.25;;;26.09;41.72
53116;BME280;39010;48.088;7.954;2022-07-06T10:09:29;99348.09;;;26.01;39.88
53116;BME280;39010;48.088;7.954;2022-07-06T10:12:02;99346.91;;;25.11;40.75
53116;BME280;39010;48.088;7.954;2022-07-06T10:14:30;99351.88;;;25.14;40.83
53116;BME280;39010;48.088;7.954;2022-07-06T10:16:59;99343.38;;;25.48;38.68
53116;BME280;39010;48.088;7.954;2022-07-06T10:19:28;99352.19;;;24.90;39.33
53116;BME280;39010;48.088;7.954;2022-07-06T10:22:01;99351.59;;;24.61;39.92
53116;BME280;39010;48.088;7.954;2022-07-06T10:24:29;99343.25;;;25.05;39.82
53116;BME280;39010;48.088;7.954;2022-07-06T10:26:56;99341.91;;;25.40;38.24
53116;BME280;39010;48.088;7.954;2022-07-06T10:29:24;99341.63;;;24.77;39.03
53116;BME280;39010;48.088;7.954;2022-07-06T10:31:50;99339.75;;;25.10;38.94
53116;BME280;39010;48.088;7.954;2022-07-06T10:34:19;99344.06;;;25.71;39.18
53116;BME280;39010;48.088;7.954;2022-07-06T10:36:51;99342.00;;;26.47;38.08
53116;BME280;39010;48.088;7.954;2022-07-06T10:39:35;99340.47;;;27.29;37.18
53116;BME280;39010;48.088;7.954;2022-07-06T10:42:57;99348.69;;;26.13;37.02
53116;BME280;39010;48.088;7.954;2022-07-06T10:50:39;99345.16;;;25.70;39.21
53116;BME280;39010;48.088;7.954;2022-07-06T10:53:36;99339.34;;;25.61;37.55
53116;BME280;39010;48.088;7.954;2022-07-06T10:56:05;99336.22;;;25.14;38.43
53116;BME280;39010;48.088;7.954;2022-07-06T11:01:08;99330.28;;;24.46;39.48
53116;BME280;39010;48.088;7.954;2022-07-06T11:03:44;99334.44;;;25.30;38.54
53116;BME280;39010;48.088;7.954;2022-07-06T11:06:15;99333.66;;;25.03;38.92
53116;BME280;39010;48.088;7.954;2022-07-06T11:08:50;99332.16;;;24.40;39.34
53116;BME280;39010;48.088;7.954;2022-07-06T11:14:01;99331.53;;;24.33;39.58
53116;BME280;39010;48.088;7.954;2022-07-06T11:16:31;99332.97;;;24.40;39.43
53116;BME280;39010;48.088;7.954;2022-07-06T11:19:12;99331.31;;;24.89;39.81
53116;BME280;39010;48.088;7.954;2022-07-06T11:21:52;99328.75;;;25.10;39.97
53116;BME280;39010;48.088;7.954;2022-07-06T11:24:25;99332.09;;;24.84;41.00
53116;BME280;39010;48.088;7.954;2022-07-06T11:26:52;99325.06;;;25.26;39.45
53116;BME280;39010;48.088;7.954;2022-07-06T11:29:20;99338.09;;;25.84;37.83
53116;BME280;39010;48.088;7.954;2022-07-06T11:31:49;99326.53;;;26.36;37.41
53116;BME280;39010;48.088;7.954;2022-07-06T11:34:30;99324.78;;;25.28;37.85
53116;BME280;39010;48.088;7.954;2022-07-06T11:37:05;99327.72;;;24.61;39.71
53116;BME280;39010;48.088;7.954;2022-07-06T11:39:35;99324.69;;;24.35;39.21
53116;BME280;39010;48.088;7.954;2022-07-06T11:42:03;99323.41;;;24.70;39.05
53116;BME280;39010;48.088;7.954;2022-07-06T11:44:31;99318.00;;;24.04;39.73
53116;BME280;39010;48.088;7.954;2022-07-06T11:46:58;99323.00;;;24.56;40.36
53116;BME280;39010;48.088;7.954;2022-07-06T11:49:28;99318.16;;;24.41;39.90
53116;BME280;39010;48.088;7.954;2022-07-06T11:51:55;99315.44;;;24.41;39.16
53116;BME280;39010;48.088;7.954;2022-07-06T11:54:22;99317.22;;;24.08;38.74
53116;BME280;39010;48.088;7.954;2022-07-06T11:56:59;99312.34;;;24.60;38.30
53116;BME280;39010;48.088;7.954;2022-07-06T11:59:28;99308.03;;;24.42;38.94
53116;BME280;39010;48.088;7.954;2022-07-06T12:04:24;99299.59;;;24.76;38.66
53116;BME280;39010;48.088;7.954;2022-07-06T12:06:51;99309.31;;;24.34;38.69
53116;BME280;39010;48.088;7.954;2022-07-06T12:09:18;99299.03;;;24.47;39.62
53116;BME280;39010;48.088;7.954;2022-07-06T12:11:46;99301.47;;;24.70;40.44
53116;BME280;39010;48.088;7.954;2022-07-06T12:14:17;99299.03;;;25.02;40.46
53116;BME280;39010;48.088;7.954;2022-07-06T12:16:46;99297.91;;;25.78;37.93
53116;BME280;39010;48.088;7.954;2022-07-06T12:19:13;99301.22;;;24.72;39.19
53116;BME280;39010;48.088;7.954;2022-07-06T12:21:49;99298.16;;;25.28;37.32
53116;BME280;39010;48.088;7.954;2022-07-06T12:24:24;99299.13;;;25.12;38.25
53116;BME280;39010;48.088;7.954;2022-07-06T12:26:52;99308.28;;;25.28;36.62
53116;BME280;39010;48.088;7.954;2022-07-06T12:29:19;99299.53;;;24.44;38.29
53116;BME280;39010;48.088;7.954;2022-07-06T12:34:21;99291.97;;;25.11;39.83
53116;BME280;39010;48.088;7.954;2022-07-06T12:36:59;99295.41;;;24.96;38.16
53116;BME280;39010;48.088;7.954;2022-07-06T12:39:41;99292.03;;;25.21;38.95
53116;BME280;39010;48.088;7.954;2022-07-06T12:42:08;99286.91;;;24.97;39.86
53116;BME280;39010;48.088;7.954;2022-07-06T12:44:50;99291.66;;;24.75;37.87
53116;BME280;39010;48.088;7.954;2022-07-06T12:47:22;99293.97;;;24.88;38.74
53116;BME280;39010;48.088;7.954;2022-07-06T12:50:10;99290.38;;;25.20;37.54
53116;BME280;39010;48.088;7.954;2022-07-06T12:52:38;99280.88;;;25.81;38.64
53116;BME280;39010;48.088;7.954;2022-07-06T12:55:06;99284.94;;;25.68;35.16
53116;BME280;39010;48.088;7.954;2022-07-06T12:57:48;99285.47;;;25.22;36.80
53116;BME280;39010;48.088;7.954;2022-07-06T13:00:16;99293.38;;;25.51;37.17
53116;BME280;39010;48.088;7.954;2022-07-06T13:02:48;99282.84;;;25.05;37.51
53116;BME280;39010;48.088;7.954;2022-07-06T13:05:35;99284.31;;;25.18;37.16
53116;BME280;39010;48.088;7.954;2022-07-06T13:08:03;99276.75;;;24.98;38.14
53116;BME280;39010;48.088;7.954;2022-07-06T13:10:30;99281.81;;;25.49;38.75
53116;BME280;39010;48.088;7.954;2022-07-06T13:13:01;99272.75;;;26.07;36.98
53116;BME280;39010;48.088;7.954;2022-07-06T13:15:28;99270.41;;;26.42;37.84
53116;BME280;39010;48.088;7.954;2022-07-06T13:17:54;99276.03;;;25.46;38.80
53116;BME280;39010;48.088;7.954;2022-07-06T13:20:21;99276.44;;;24.94;40.93
53116;BME280;39010;48.088;7.954;2022-07-06T13:22:47;99270.44;;;24.97;39.89
53116;BME280;39010;48.088;7.954;2022-07-06T13:25:14;99273.97;;;24.65;40.48
53116;BME280;39010;48.088;7.954;2022-07-06T13:27:40;99278.66;;;25.35;40.58
53116;BME280;39010;48.088;7.954;2022-07-06T13:30:07;99272.00;;;25.58;38.04
53116;BME280;39010;48.088;7.954;2022-07-06T13:32:34;99272.59;;;25.33;39.57
53116;BME280;39010;48.088;7.954;2022-07-06T13:35:00;99262.31;;;25.51;41.12